sensor_id;sensor_type;location;lat;lon;timestamp;pressure;altitude;pressure_sealevel;temperature
43292;BMP280;28754;47.700;7.924;2024-02-26T00:01:37;89462.75;;;8.60
43292;BMP280;28754;47.700;7.924;2024-02-26T00:04:24;89460.50;;;8.59
43292;BMP280;28754;47.700;7.924;2024-02-26T00:07:10;89468.88;;;8.59
43292;BMP280;28754;47.700;7.924;2024-02-26T00:09:57;89475.69;;;8.64
43292;BMP280;28754;47.700;7.924;2024-02-26T00:12:44;89479.06;;;8.51
43292;BMP280;28754;47.700;7.924;2024-02-26T00:15:30;89466.13;;;8.48
43292;BMP280;28754;47.700;7.924;2024-02-26T00:18:17;89466.88;;;8.48
43292;BMP280;28754;47.700;7.924;2024-02-26T00:21:04;89465.84;;;8.49
43292;BMP280;28754;47.700;7.924;2024-02-26T00:23:53;89472.56;;;8.45
43292;BMP280;28754;47.700;7.924;2024-02-26T00:26:39;89461.06;;;8.34
43292;BMP280;28754;47.700;7.924;2024-02-26T00:29:26;89466.59;;;8.15
43292;BMP280;28754;47.700;7.924;2024-02-26T00:32:13;89456.25;;;7.98
43292;BMP280;28754;47.700;7.924;2024-02-26T00:34:59;89453.44;;;7.86
43292;BMP280;28754;47.700;7.924;2024-02-26T00:37:46;89461.38;;;7.71
43292;BMP280;28754;47.700;7.924;2024-02-26T00:40:33;89450.38;;;7.62
43292;BMP280;28754;47.700;7.924;2024-02-26T00:43:20;89459.13;;;7.56
43292;BMP280;28754;47.700;7.924;2024-02-26T00:46:07;89456.88;;;7.42
43292;BMP280;28754;47.700;7.924;2024-02-26T00:48:53;89444.53;;;7.35
43292;BMP280;28754;47.700;7.924;2024-02-26T00:51:40;89445.38;;;7.31
43292;BMP280;28754;47.700;7.924;2024-02-26T00:54:27;89437.84;;;7.26
43292;BMP280;28754;47.700;7.924;2024-02-26T00:57:13;89435.41;;;7.21
43292;BMP280;28754;47.700;7.924;2024-02-26T01:00:00;89416.19;;;7.15
43292;BMP280;28754;47.700;7.924;2024-02-26T01:02:47;89421.38;;;7.10
43292;BMP280;28754;47.700;7.924;2024-02-26T01:05:34;89415.81;;;7.08
43292;BMP280;28754;47.700;7.924;2024-02-26T01:08:20;89423.25;;;7.05
43292;BMP280;28754;47.700;7.924;2024-02-26T01:11:07;89428.13;;;7.01
43292;BMP280;28754;47.700;7.924;2024-02-26T01:13:54;89418.53;;;6.98
43292;BMP280;28754;47.700;7.924;2024-02-26T01:16:42;89424.56;;;7.02
43292;BMP280;28754;47.700;7.924;2024-02-26T01:19:29;89425.41;;;7.11
43292;BMP280;28754;47.700;7.924;2024-02-26T01:22:16;89430.88;;;7.18
43292;BMP280;28754;47.700;7.924;2024-02-26T01:25:03;89439.34;;;7.27
43292;BMP280;28754;47.700;7.924;2024-02-26T01:27:49;89425.22;;;7.34
43292;BMP280;28754;47.700;7.924;2024-02-26T01:30:36;89418.91;;;7.45
43292;BMP280;28754;47.700;7.924;2024-02-26T01:33:23;89420.88;;;7.48
43292;BMP280;28754;47.700;7.924;2024-02-26T01:36:09;89421.72;;;7.44
43292;BMP280;28754;47.700;7.924;2024-02-26T01:38:56;89424.72;;;7.46
43292;BMP280;28754;47.700;7.924;2024-02-26T01:41:43;89431.97;;;7.52
43292;BMP280;28754;47.700;7.924;2024-02-26T01:44:29;89437.53;;;7.67
43292;BMP280;28754;47.700;7.924;2024-02-26T01:47:16;89443.25;;;7.86
43292;BMP280;28754;47.700;7.924;2024-02-26T01:50:03;89454.34;;;8.03
43292;BMP280;28754;47.700;7.924;2024-02-26T01:52:51;89458.94;;;8.15
43292;BMP280;28754;47.700;7.924;2024-02-26T01:55:38;89464.13;;;8.23
43292;BMP280;28754;47.700;7.924;2024-02-26T01:58:28;89447.22;;;8.27
43292;BMP280;28754;47.700;7.924;2024-02-26T02:01:19;89454.31;;;8.17
43292;BMP280;28754;47.700;7.924;2024-02-26T02:04:07;89444.25;;;7.98
43292;BMP280;28754;47.700;7.924;2024-02-26T02:06:55;89451.31;;;8.01
43292;BMP280;28754;47.700;7.924;2024-02-26T02:09:43;89444.06;;;7.95
43292;BMP280;28754;47.700;7.924;2024-02-26T02:12:30;89438.34;;;7.89
43292;BMP280;28754;47.700;7.924;2024-02-26T02:15:19;89432.31;;;7.86
43292;BMP280;28754;47.700;7.924;2024-02-26T02:18:07;89436.13;;;7.75
43292;BMP280;28754;47.700;7.924;2024-02-26T02:20:53;89433.97;;;7.55
43292;BMP280;28754;47.700;7.924;2024-02-26T02:23:42;89428.25;;;7.36
43292;BMP280;28754;47.700;7.924;2024-02-26T02:26:32;89433.34;;;7.23
43292;BMP280;28754;47.700;7.924;2024-02-26T02:29:19;89417.31;;;7.09
43292;BMP280;28754;47.700;7.924;2024-02-26T02:32:49;89397.16;;;6.99
43292;BMP280;28754;47.700;7.924;2024-02-26T02:35:36;89380.00;;;6.91
43292;BMP280;28754;47.700;7.924;2024-02-26T02:38:23;89372.06;;;6.80
43292;BMP280;28754;47.700;7.924;2024-02-26T02:41:10;89371.13;;;6.62
43292;BMP280;28754;47.700;7.924;2024-02-26T02:43:57;89383.94;;;6.57
43292;BMP280;28754;47.700;7.924;2024-02-26T02:46:44;89393.84;;;6.59
43292;BMP280;28754;47.700;7.924;2024-02-26T02:49:30;89401.16;;;6.60
43292;BMP280;28754;47.700;7.924;2024-02-26T02:52:17;89390.72;;;6.62
43292;BMP280;28754;47.700;7.924;2024-02-26T02:55:04;89393.09;;;6.72
43292;BMP280;28754;47.700;7.924;2024-02-26T02:57:50;89400.34;;;6.78
43292;BMP280;28754;47.700;7.924;2024-02-26T03:00:37;89404.00;;;6.85
43292;BMP280;28754;47.700;7.924;2024-02-26T03:03:24;89399.78;;;6.94
43292;BMP280;28754;47.700;7.924;2024-02-26T03:06:11;89405.91;;;7.07
43292;BMP280;28754;47.700;7.924;2024-02-26T03:08:58;89404.78;;;7.13
43292;BMP280;28754;47.700;7.924;2024-02-26T03:11:44;89402.88;;;7.18
43292;BMP280;28754;47.700;7.924;2024-02-26T03:14:31;89395.44;;;7.21
43292;BMP280;28754;47.700;7.924;2024-02-26T03:17:18;89402.22;;;7.26
43292;BMP280;28754;47.700;7.924;2024-02-26T03:20:07;89393.53;;;7.27
43292;BMP280;28754;47.700;7.924;2024-02-26T03:22:54;89394.88;;;7.38
43292;BMP280;28754;47.700;7.924;2024-02-26T03:25:45;89398.25;;;7.47
43292;BMP280;28754;47.700;7.924;2024-02-26T03:28:34;89402.56;;;7.46
43292;BMP280;28754;47.700;7.924;2024-02-26T03:31:21;89402.41;;;7.43
43292;BMP280;28754;47.700;7.924;2024-02-26T03:34:08;89405.06;;;7.38
43292;BMP280;28754;47.700;7.924;2024-02-26T03:36:55;89393.16;;;7.47
43292;BMP280;28754;47.700;7.924;2024-02-26T03:39:42;89403.50;;;7.50
43292;BMP280;28754;47.700;7.924;2024-02-26T03:42:28;89411.34;;;7.53
43292;BMP280;28754;47.700;7.924;2024-02-26T03:45:15;89410.75;;;7.56
43292;BMP280;28754;47.700;7.924;2024-02-26T03:48:02;89415.66;;;7.66
43292;BMP280;28754;47.700;7.924;2024-02-26T03:50:48;89415.75;;;7.75
43292;BMP280;28754;47.700;7.924;2024-02-26T03:53:35;89401.28;;;7.84
43292;BMP280;28754;47.700;7.924;2024-02-26T03:56:22;89414.94;;;7.87
43292;BMP280;28754;47.700;7.924;2024-02-26T03:59:09;89416.63;;;7.92
43292;BMP280;28754;47.700;7.924;2024-02-26T04:01:56;89411.34;;;7.88
43292;BMP280;28754;47.700;7.924;2024-02-26T04:04:42;89411.00;;;7.82
43292;BMP280;28754;47.700;7.924;2024-02-26T04:07:29;89407.22;;;7.79
43292;BMP280;28754;47.700;7.924;2024-02-26T04:10:16;89415.03;;;7.83
43292;BMP280;28754;47.700;7.924;2024-02-26T04:13:03;89420.91;;;7.83
43292;BMP280;28754;47.700;7.924;2024-02-26T04:15:50;89420.13;;;7.83
43292;BMP280;28754;47.700;7.924;2024-02-26T04:18:37;89427.63;;;7.79
43292;BMP280;28754;47.700;7.924;2024-02-26T04:21:24;89429.97;;;7.76
43292;BMP280;28754;47.700;7.924;2024-02-26T04:24:11;89444.13;;;7.68
43292;BMP280;28754;47.700;7.924;2024-02-26T04:26:58;89442.91;;;7.52
43292;BMP280;28754;47.700;7.924;2024-02-26T04:29:44;89455.66;;;7.52
43292;BMP280;28754;47.700;7.924;2024-02-26T04:32:31;89463.75;;;7.54
43292;BMP280;28754;47.700;7.924;2024-02-26T04:35:18;89465.19;;;7.60
43292;BMP280;28754;47.700;7.924;2024-02-26T04:38:04;89461.03;;;7.64
43292;BMP280;28754;47.700;7.924;2024-02-26T04:40:51;89459.69;;;7.67
43292;BMP280;28754;47.700;7.924;2024-02-26T04:43:38;89458.47;;;7.64
43292;BMP280;28754;47.700;7.924;2024-02-26T04:46:28;89461.78;;;7.65
43292;BMP280;28754;47.700;7.924;2024-02-26T04:49:14;89458.38;;;7.69
43292;BMP280;28754;47.700;7.924;2024-02-26T04:52:01;89467.44;;;7.75
43292;BMP280;28754;47.700;7.924;2024-02-26T04:54:48;89449.31;;;7.77
43292;BMP280;28754;47.700;7.924;2024-02-26T04:57:34;89445.91;;;7.81
43292;BMP280;28754;47.700;7.924;2024-02-26T05:00:21;89439.22;;;7.85
43292;BMP280;28754;47.700;7.924;2024-02-26T05:03:07;89439.09;;;7.90
43292;BMP280;28754;47.700;7.924;2024-02-26T05:06:00;89452.09;;;7.88
43292;BMP280;28754;47.700;7.924;2024-02-26T05:08:47;89442.31;;;7.82
43292;BMP280;28754;47.700;7.924;2024-02-26T05:11:34;89438.19;;;7.73
43292;BMP280;28754;47.700;7.924;2024-02-26T05:14:21;89432.91;;;7.69
43292;BMP280;28754;47.700;7.924;2024-02-26T05:17:08;89434.44;;;7.70
43292;BMP280;28754;47.700;7.924;2024-02-26T05:19:55;89451.59;;;7.65
43292;BMP280;28754;47.700;7.924;2024-02-26T05:22:42;89433.69;;;7.56
43292;BMP280;28754;47.700;7.924;2024-02-26T05:25:29;89435.78;;;7.41
43292;BMP280;28754;47.700;7.924;2024-02-26T05:28:15;89436.25;;;7.30
43292;BMP280;28754;47.700;7.924;2024-02-26T05:31:02;89436.63;;;7.23
43292;BMP280;28754;47.700;7.924;2024-02-26T05:33:49;89434.09;;;7.23
43292;BMP280;28754;47.700;7.924;2024-02-26T05:36:36;89438.53;;;7.31
43292;BMP280;28754;47.700;7.924;2024-02-26T05:39:23;89436.63;;;7.37
43292;BMP280;28754;47.700;7.924;2024-02-26T05:42:09;89436.53;;;7.42
43292;BMP280;28754;47.700;7.924;2024-02-26T05:44:56;89439.84;;;7.42
43292;BMP280;28754;47.700;7.924;2024-02-26T05:47:43;89434.84;;;7.51
43292;BMP280;28754;47.700;7.924;2024-02-26T05:50:30;89436.59;;;7.50
43292;BMP280;28754;47.700;7.924;2024-02-26T05:53:16;89431.63;;;7.45
43292;BMP280;28754;47.700;7.924;2024-02-26T05:56:03;89443.41;;;7.41
43292;BMP280;28754;47.700;7.924;2024-02-26T05:58:50;89437.19;;;7.34
43292;BMP280;28754;47.700;7.924;2024-02-26T06:01:38;89430.69;;;7.28
43292;BMP280;28754;47.700;7.924;2024-02-26T06:04:24;89432.50;;;7.27
43292;BMP280;28754;47.700;7.924;2024-02-26T06:07:11;89437.59;;;7.27
43292;BMP280;28754;47.700;7.924;2024-02-26T06:09:58;89444.44;;;7.27
43292;BMP280;28754;47.700;7.924;2024-02-26T06:12:44;89445.88;;;7.33
43292;BMP280;28754;47.700;7.924;2024-02-26T06:15:31;89443.69;;;7.40
43292;BMP280;28754;47.700;7.924;2024-02-26T06:18:18;89450.94;;;7.46
43292;BMP280;28754;47.700;7.924;2024-02-26T06:21:04;89448.00;;;7.52
43292;BMP280;28754;47.700;7.924;2024-02-26T06:23:55;89447.06;;;7.62
43292;BMP280;28754;47.700;7.924;2024-02-26T06:26:41;89448.41;;;7.59
43292;BMP280;28754;47.700;7.924;2024-02-26T06:29:28;89451.97;;;7.58
43292;BMP280;28754;47.700;7.924;2024-02-26T06:32:15;89447.34;;;7.60
43292;BMP280;28754;47.700;7.924;2024-02-26T06:35:02;89448.56;;;7.63
43292;BMP280;28754;47.700;7.924;2024-02-26T06:37:53;89459.69;;;7.67
43292;BMP280;28754;47.700;7.924;2024-02-26T06:40:40;89460.91;;;7.69
43292;BMP280;28754;47.700;7.924;2024-02-26T06:43:26;89462.91;;;7.72
43292;BMP280;28754;47.700;7.924;2024-02-26T06:46:13;89459.41;;;7.68
43292;BMP280;28754;47.700;7.924;2024-02-26T06:49:00;89448.38;;;7.73
43292;BMP280;28754;47.700;7.924;2024-02-26T06:51:46;89452.50;;;7.82
43292;BMP280;28754;47.700;7.924;2024-02-26T06:54:33;89456.25;;;7.85
43292;BMP280;28754;47.700;7.924;2024-02-26T06:57:20;89458.53;;;7.86
43292;BMP280;28754;47.700;7.924;2024-02-26T07:00:08;89461.19;;;7.81
43292;BMP280;28754;47.700;7.924;2024-02-26T07:02:55;89461.59;;;7.75
43292;BMP280;28754;47.700;7.924;2024-02-26T07:05:41;89465.53;;;7.67
43292;BMP280;28754;47.700;7.924;2024-02-26T07:08:28;89486.88;;;7.58
43292;BMP280;28754;47.700;7.924;2024-02-26T07:11:15;89476.69;;;7.45
43292;BMP280;28754;47.700;7.924;2024-02-26T07:14:02;89474.97;;;7.27
43292;BMP280;28754;47.700;7.924;2024-02-26T07:16:49;89484.63;;;7.17
43292;BMP280;28754;47.700;7.924;2024-02-26T07:19:35;89497.59;;;7.15
43292;BMP280;28754;47.700;7.924;2024-02-26T07:22:22;89489.78;;;7.12
43292;BMP280;28754;47.700;7.924;2024-02-26T07:25:09;89489.97;;;7.02
43292;BMP280;28754;47.700;7.924;2024-02-26T07:27:59;89493.16;;;6.94
43292;BMP280;28754;47.700;7.924;2024-02-26T07:30:46;89493.41;;;6.92
43292;BMP280;28754;47.700;7.924;2024-02-26T07:33:32;89494.94;;;6.93
43292;BMP280;28754;47.700;7.924;2024-02-26T07:36:20;89505.03;;;6.98
43292;BMP280;28754;47.700;7.924;2024-02-26T07:39:07;89505.22;;;7.02
43292;BMP280;28754;47.700;7.924;2024-02-26T07:41:53;89499.47;;;6.96
43292;BMP280;28754;47.700;7.924;2024-02-26T07:44:40;89501.88;;;6.88
43292;BMP280;28754;47.700;7.924;2024-02-26T07:47:29;89513.28;;;6.90
43292;BMP280;28754;47.700;7.924;2024-02-26T07:50:16;89510.28;;;6.88
43292;BMP280;28754;47.700;7.924;2024-02-26T07:53:03;89508.13;;;6.95
43292;BMP280;28754;47.700;7.924;2024-02-26T07:55:49;89507.78;;;7.02
43292;BMP280;28754;47.700;7.924;2024-02-26T07:58:36;89500.03;;;7.07
43292;BMP280;28754;47.700;7.924;2024-02-26T08:01:23;89500.25;;;7.10
43292;BMP280;28754;47.700;7.924;2024-02-26T08:04:09;89500.78;;;7.07
43292;BMP280;28754;47.700;7.924;2024-02-26T08:06:56;89496.38;;;7.13
43292;BMP280;28754;47.700;7.924;2024-02-26T08:09:43;89511.19;;;7.24
43292;BMP280;28754;47.700;7.924;2024-02-26T08:12:29;89510.63;;;7.93
43292;BMP280;28754;47.700;7.924;2024-02-26T08:15:16;89498.84;;;10.04
43292;BMP280;28754;47.700;7.924;2024-02-26T08:18:04;89485.81;;;10.23
43292;BMP280;28754;47.700;7.924;2024-02-26T08:20:50;89485.47;;;9.91
43292;BMP280;28754;47.700;7.924;2024-02-26T08:23:37;89494.19;;;9.59
43292;BMP280;28754;47.700;7.924;2024-02-26T08:26:24;89491.38;;;9.31
43292;BMP280;28754;47.700;7.924;2024-02-26T08:29:10;89503.97;;;8.97
43292;BMP280;28754;47.700;7.924;2024-02-26T08:31:57;89508.03;;;8.77
43292;BMP280;28754;47.700;7.924;2024-02-26T08:34:44;89499.22;;;8.83
43292;BMP280;28754;47.700;7.924;2024-02-26T08:37:30;89496.13;;;8.72
43292;BMP280;28754;47.700;7.924;2024-02-26T08:40:17;89503.44;;;8.65
43292;BMP280;28754;47.700;7.924;2024-02-26T08:43:05;89508.19;;;8.58
43292;BMP280;28754;47.700;7.924;2024-02-26T08:45:52;89503.69;;;8.56
43292;BMP280;28754;47.700;7.924;2024-02-26T08:48:40;89505.00;;;8.53
43292;BMP280;28754;47.700;7.924;2024-02-26T08:51:26;89506.53;;;8.54
43292;BMP280;28754;47.700;7.924;2024-02-26T08:54:13;89502.91;;;8.55
43292;BMP280;28754;47.700;7.924;2024-02-26T08:57:00;89502.00;;;8.73
43292;BMP280;28754;47.700;7.924;2024-02-26T08:59:46;89507.44;;;8.80
43292;BMP280;28754;47.700;7.924;2024-02-26T09:02:33;89507.19;;;8.81
43292;BMP280;28754;47.700;7.924;2024-02-26T09:05:20;89517.66;;;9.01
43292;BMP280;28754;47.700;7.924;2024-02-26T09:08:07;89519.31;;;9.06
43292;BMP280;28754;47.700;7.924;2024-02-26T09:10:53;89523.91;;;8.95
43292;BMP280;28754;47.700;7.924;2024-02-26T09:13:40;89526.06;;;8.80
43292;BMP280;28754;47.700;7.924;2024-02-26T09:16:27;89529.69;;;8.66
43292;BMP280;28754;47.700;7.924;2024-02-26T09:19:14;89532.03;;;8.54
43292;BMP280;28754;47.700;7.924;2024-02-26T09:22:01;89530.91;;;8.47
43292;BMP280;28754;47.700;7.924;2024-02-26T09:24:48;89536.41;;;8.40
43292;BMP280;28754;47.700;7.924;2024-02-26T09:27:36;89545.44;;;8.46
43292;BMP280;28754;47.700;7.924;2024-02-26T09:30:23;89549.06;;;8.45
43292;BMP280;28754;47.700;7.924;2024-02-26T09:33:10;89550.66;;;8.41
43292;BMP280;28754;47.700;7.924;2024-02-26T09:35:56;89545.56;;;8.41
43292;BMP280;28754;47.700;7.924;2024-02-26T09:38:43;89527.13;;;8.44
43292;BMP280;28754;47.700;7.924;2024-02-26T09:41:30;89524.03;;;8.47
43292;BMP280;28754;47.700;7.924;2024-02-26T09:44:20;89518.34;;;8.50
43292;BMP280;28754;47.700;7.924;2024-02-26T09:47:10;89521.34;;;8.52
43292;BMP280;28754;47.700;7.924;2024-02-26T09:49:59;89524.25;;;8.59
43292;BMP280;28754;47.700;7.924;2024-02-26T09:52:46;89528.78;;;8.62
43292;BMP280;28754;47.700;7.924;2024-02-26T09:55:33;89532.09;;;8.62
43292;BMP280;28754;47.700;7.924;2024-02-26T09:58:20;89539.56;;;8.59
43292;BMP280;28754;47.700;7.924;2024-02-26T10:01:18;89544.84;;;8.62
43292;BMP280;28754;47.700;7.924;2024-02-26T10:04:08;89558.19;;;8.81
43292;BMP280;28754;47.700;7.924;2024-02-26T10:06:55;89549.94;;;9.06
43292;BMP280;28754;47.700;7.924;2024-02-26T10:09:41;89555.84;;;9.36
43292;BMP280;28754;47.700;7.924;2024-02-26T10:12:29;89558.94;;;9.55
43292;BMP280;28754;47.700;7.924;2024-02-26T10:15:17;89555.03;;;9.57
43292;BMP280;28754;47.700;7.924;2024-02-26T10:18:07;89561.25;;;9.65
43292;BMP280;28754;47.700;7.924;2024-02-26T10:21:01;89549.34;;;9.91
43292;BMP280;28754;47.700;7.924;2024-02-26T10:23:49;89543.75;;;10.35
43292;BMP280;28754;47.700;7.924;2024-02-26T10:26:36;89546.78;;;10.96
43292;BMP280;28754;47.700;7.924;2024-02-26T10:29:26;89567.06;;;11.68
43292;BMP280;28754;47.700;7.924;2024-02-26T10:32:13;89566.75;;;12.15
43292;BMP280;28754;47.700;7.924;2024-02-26T10:35:00;89571.69;;;12.48
43292;BMP280;28754;47.700;7.924;2024-02-26T10:37:48;89573.38;;;12.73
43292;BMP280;28754;47.700;7.924;2024-02-26T10:40:35;89575.78;;;12.78
43292;BMP280;28754;47.700;7.924;2024-02-26T10:43:22;89581.91;;;12.57
43292;BMP280;28754;47.700;7.924;2024-02-26T10:46:08;89586.69;;;12.09
43292;BMP280;28754;47.700;7.924;2024-02-26T10:48:56;89590.28;;;12.17
43292;BMP280;28754;47.700;7.924;2024-02-26T10:51:45;89598.91;;;12.41
43292;BMP280;28754;47.700;7.924;2024-02-26T10:54:34;89597.03;;;12.58
43292;BMP280;28754;47.700;7.924;2024-02-26T10:57:24;89604.47;;;12.80
43292;BMP280;28754;47.700;7.924;2024-02-26T11:00:15;89594.59;;;12.90
43292;BMP280;28754;47.700;7.924;2024-02-26T11:03:03;89584.31;;;13.31
43292;BMP280;28754;47.700;7.924;2024-02-26T11:05:52;89577.38;;;13.63
43292;BMP280;28754;47.700;7.924;2024-02-26T11:08:39;89583.66;;;13.54
43292;BMP280;28754;47.700;7.924;2024-02-26T11:11:26;89581.94;;;13.58
43292;BMP280;28754;47.700;7.924;2024-02-26T11:14:15;89583.47;;;13.59
43292;BMP280;28754;47.700;7.924;2024-02-26T11:17:02;89582.22;;;13.76
43292;BMP280;28754;47.700;7.924;2024-02-26T11:19:50;89583.06;;;13.69
43292;BMP280;28754;47.700;7.924;2024-02-26T11:22:38;89581.22;;;13.37
43292;BMP280;28754;47.700;7.924;2024-02-26T11:25:24;89582.56;;;13.03
43292;BMP280;28754;47.700;7.924;2024-02-26T11:28:18;89581.25;;;12.68
43292;BMP280;28754;47.700;7.924;2024-02-26T11:31:06;89582.19;;;12.35
43292;BMP280;28754;47.700;7.924;2024-02-26T11:33:55;89584.31;;;11.96
43292;BMP280;28754;47.700;7.924;2024-02-26T11:36:42;89581.38;;;11.61
43292;BMP280;28754;47.700;7.924;2024-02-26T11:39:29;89581.09;;;11.37
43292;BMP280;28754;47.700;7.924;2024-02-26T11:42:24;89574.03;;;11.17
43292;BMP280;28754;47.700;7.924;2024-02-26T11:48:28;89574.38;;;10.82
43292;BMP280;28754;47.700;7.924;2024-02-26T11:51:15;89570.28;;;10.73
43292;BMP280;28754;47.700;7.924;2024-02-26T11:54:02;89568.03;;;10.71
43292;BMP280;28754;47.700;7.924;2024-02-26T11:56:50;89571.19;;;10.77
43292;BMP280;28754;47.700;7.924;2024-02-26T11:59:40;89573.00;;;10.85
43292;BMP280;28754;47.700;7.924;2024-02-26T12:05:33;89577.34;;;11.09
43292;BMP280;28754;47.700;7.924;2024-02-26T12:08:21;89578.56;;;11.99
43292;BMP280;28754;47.700;7.924;2024-02-26T12:11:15;89564.94;;;12.44
43292;BMP280;28754;47.700;7.924;2024-02-26T12:14:02;89569.72;;;12.74
43292;BMP280;28754;47.700;7.924;2024-02-26T12:16:51;89570.91;;;12.85
43292;BMP280;28754;47.700;7.924;2024-02-26T12:19:38;89570.81;;;12.73
43292;BMP280;28754;47.700;7.924;2024-02-26T12:22:25;89578.38;;;12.69
43292;BMP280;28754;47.700;7.924;2024-02-26T12:25:13;89577.31;;;12.70
43292;BMP280;28754;47.700;7.924;2024-02-26T12:28:00;89592.72;;;12.70
43292;BMP280;28754;47.700;7.924;2024-02-26T12:30:47;89599.34;;;12.71
43292;BMP280;28754;47.700;7.924;2024-02-26T12:33:34;89589.19;;;13.03
43292;BMP280;28754;47.700;7.924;2024-02-26T12:36:21;89588.69;;;13.50
43292;BMP280;28754;47.700;7.924;2024-02-26T12:39:09;89580.22;;;13.82
43292;BMP280;28754;47.700;7.924;2024-02-26T12:41:58;89581.91;;;14.22
43292;BMP280;28754;47.700;7.924;2024-02-26T12:44:46;89570.22;;;14.60
43292;BMP280;28754;47.700;7.924;2024-02-26T12:47:35;89579.78;;;14.71
43292;BMP280;28754;47.700;7.924;2024-02-26T12:50:22;89578.91;;;14.79
43292;BMP280;28754;47.700;7.924;2024-02-26T12:53:08;89581.47;;;14.91
43292;BMP280;28754;47.700;7.924;2024-02-26T12:55:55;89572.91;;;14.75
43292;BMP280;28754;47.700;7.924;2024-02-26T12:58:42;89587.50;;;14.71
43292;BMP280;28754;47.700;7.924;2024-02-26T13:01:30;89568.28;;;14.69
43292;BMP280;28754;47.700;7.924;2024-02-26T13:04:18;89582.78;;;14.73
43292;BMP280;28754;47.700;7.924;2024-02-26T13:07:05;89579.13;;;14.74
43292;BMP280;28754;47.700;7.924;2024-02-26T13:09:55;89570.97;;;14.72
43292;BMP280;28754;47.700;7.924;2024-02-26T13:12:47;89574.84;;;14.66
43292;BMP280;28754;47.700;7.924;2024-02-26T13:15:34;89563.16;;;14.45
43292;BMP280;28754;47.700;7.924;2024-02-26T13:18:21;89568.09;;;14.38
43292;BMP280;28754;47.700;7.924;2024-02-26T13:21:10;89572.06;;;14.47
43292;BMP280;28754;47.700;7.924;2024-02-26T13:23:57;89572.59;;;14.53
43292;BMP280;28754;47.700;7.924;2024-02-26T13:26:43;89579.47;;;14.49
43292;BMP280;28754;47.700;7.924;2024-02-26T13:29:30;89577.53;;;14.46
43292;BMP280;28754;47.700;7.924;2024-02-26T13:32:17;89577.84;;;14.44
43292;BMP280;28754;47.700;7.924;2024-02-26T13:35:12;89572.28;;;14.54
43292;BMP280;28754;47.700;7.924;2024-02-26T13:37:59;89580.44;;;14.80
43292;BMP280;28754;47.700;7.924;2024-02-26T13:40:45;89578.91;;;14.91
43292;BMP280;28754;47.700;7.924;2024-02-26T13:43:32;89577.50;;;14.93
43292;BMP280;28754;47.700;7.924;2024-02-26T13:46:18;89573.53;;;15.08
43292;BMP280;28754;47.700;7.924;2024-02-26T13:49:09;89568.66;;;15.57
43292;BMP280;28754;47.700;7.924;2024-02-26T13:51:57;89576.50;;;16.03
43292;BMP280;28754;47.700;7.924;2024-02-26T13:54:44;89567.00;;;16.34
43292;BMP280;28754;47.700;7.924;2024-02-26T13:57:30;89565.78;;;16.77
43292;BMP280;28754;47.700;7.924;2024-02-26T14:00:18;89566.94;;;16.95
43292;BMP280;28754;47.700;7.924;2024-02-26T14:03:05;89565.78;;;16.77
43292;BMP280;28754;47.700;7.924;2024-02-26T14:05:52;89570.03;;;16.70
43292;BMP280;28754;47.700;7.924;2024-02-26T14:08:38;89577.28;;;16.80
43292;BMP280;28754;47.700;7.924;2024-02-26T14:11:25;89576.78;;;16.74
43292;BMP280;28754;47.700;7.924;2024-02-26T14:14:35;89565.41;;;16.60
43292;BMP280;28754;47.700;7.924;2024-02-26T14:17:52;89566.63;;;16.50
43292;BMP280;28754;47.700;7.924;2024-02-26T14:20:45;89572.16;;;16.64
43292;BMP280;28754;47.700;7.924;2024-02-26T14:23:31;89576.38;;;16.26
43292;BMP280;28754;47.700;7.924;2024-02-26T14:26:18;89584.25;;;15.76
43292;BMP280;28754;47.700;7.924;2024-02-26T14:29:05;89588.53;;;15.29
43292;BMP280;28754;47.700;7.924;2024-02-26T14:31:51;89590.50;;;14.73
43292;BMP280;28754;47.700;7.924;2024-02-26T14:34:38;89596.06;;;14.16
43292;BMP280;28754;47.700;7.924;2024-02-26T14:37:25;89591.31;;;13.62
43292;BMP280;28754;47.700;7.924;2024-02-26T14:40:12;89591.81;;;13.36
43292;BMP280;28754;47.700;7.924;2024-02-26T14:42:59;89598.66;;;13.11
43292;BMP280;28754;47.700;7.924;2024-02-26T14:45:46;89613.75;;;12.93
43292;BMP280;28754;47.700;7.924;2024-02-26T14:48:49;89614.47;;;12.73
43292;BMP280;28754;47.700;7.924;2024-02-26T14:51:35;89610.91;;;12.57
43292;BMP280;28754;47.700;7.924;2024-02-26T14:54:22;89613.94;;;12.51
43292;BMP280;28754;47.700;7.924;2024-02-26T14:57:09;89610.81;;;12.45
43292;BMP280;28754;47.700;7.924;2024-02-26T14:59:55;89621.72;;;12.42
43292;BMP280;28754;47.700;7.924;2024-02-26T15:02:42;89620.84;;;12.30
43292;BMP280;28754;47.700;7.924;2024-02-26T15:05:29;89630.84;;;12.23
43292;BMP280;28754;47.700;7.924;2024-02-26T15:08:15;89625.56;;;12.20
43292;BMP280;28754;47.700;7.924;2024-02-26T15:11:03;89628.13;;;12.20
43292;BMP280;28754;47.700;7.924;2024-02-26T15:13:50;89625.88;;;12.18
43292;BMP280;28754;47.700;7.924;2024-02-26T15:16:37;89634.75;;;12.21
43292;BMP280;28754;47.700;7.924;2024-02-26T15:19:23;89640.34;;;12.23
43292;BMP280;28754;47.700;7.924;2024-02-26T15:22:10;89632.34;;;12.24
43292;BMP280;28754;47.700;7.924;2024-02-26T15:24:58;89635.22;;;12.23
43292;BMP280;28754;47.700;7.924;2024-02-26T15:27:44;89642.00;;;12.19
43292;BMP280;28754;47.700;7.924;2024-02-26T15:30:31;89646.09;;;12.20
43292;BMP280;28754;47.700;7.924;2024-02-26T15:33:19;89638.69;;;12.18
43292;BMP280;28754;47.700;7.924;2024-02-26T15:36:08;89647.00;;;12.24
43292;BMP280;28754;47.700;7.924;2024-02-26T15:38:56;89645.31;;;12.28
43292;BMP280;28754;47.700;7.924;2024-02-26T15:41:46;89649.38;;;12.29
43292;BMP280;28754;47.700;7.924;2024-02-26T15:44:33;89651.78;;;12.33
43292;BMP280;28754;47.700;7.924;2024-02-26T15:47:19;89662.81;;;12.34
43292;BMP280;28754;47.700;7.924;2024-02-26T15:50:06;89667.03;;;12.30
43292;BMP280;28754;47.700;7.924;2024-02-26T15:52:53;89669.00;;;12.25
43292;BMP280;28754;47.700;7.924;2024-02-26T15:55:41;89666.94;;;12.10
43292;BMP280;28754;47.700;7.924;2024-02-26T15:58:29;89676.94;;;11.86
43292;BMP280;28754;47.700;7.924;2024-02-26T16:01:15;89691.13;;;11.75
43292;BMP280;28754;47.700;7.924;2024-02-26T16:04:02;89693.13;;;11.70
43292;BMP280;28754;47.700;7.924;2024-02-26T16:06:54;89698.69;;;11.64
43292;BMP280;28754;47.700;7.924;2024-02-26T16:09:41;89702.75;;;11.65
43292;BMP280;28754;47.700;7.924;2024-02-26T16:12:44;89705.31;;;11.73
43292;BMP280;28754;47.700;7.924;2024-02-26T16:15:35;89710.75;;;11.71
43292;BMP280;28754;47.700;7.924;2024-02-26T16:18:22;89712.09;;;11.61
43292;BMP280;28754;47.700;7.924;2024-02-26T16:21:09;89720.56;;;11.44